Time;durP1;ratioP1;P1;durP2;ratioP2;P2;SDS_P1;SDS_P2;PMS_P1;PMS_P2;Temp;Humidity;BMP_temperature;BMP_pressure;BME280_temperature;BME280_humidity;BME280_pressure;Samples;Min_cycle;Max_cycle;Signal;HPM_P1;HPM_P2
2023/05/21 00:00:09;;;;;;;17.45;10.75;;;14.50;99.90;;;;;;2105989;28;20069;-70
2023/05/21 00:01:15;;;;;;;10.70;9.63;;;14.40;99.90;;;;;;2101462;28;20032;-70
2023/05/21 00:02:17;;;;;;;11.60;10.40;;;14.40;99.90;;;;;;2103682;28;20028;-70
2023/05/21 00:03:17;;;;;;;13.40;12.05;;;14.40;99.90;;;;;;2104168;28;20028;-70
2023/05/21 00:04:18;;;;;;;12.80;11.50;;;14.40;99.90;;;;;;2105523;28;20039;-70
2023/05/21 00:05:20;;;;;;;12.25;10.50;;;14.40;99.90;;;;;;2104258;28;20471;-70
2023/05/21 00:06:21;;;;;;;11.32;10.13;;;14.40;99.90;;;;;;2102566;28;20024;-70
2023/05/21 00:07:22;;;;;;;12.27;11.07;;;14.40;99.90;;;;;;2104409;28;20031;-70
2023/05/21 00:08:23;;;;;;;14.48;10.18;;;14.30;99.90;;;;;;2103653;28;20020;-70
2023/05/21 00:09:24;;;;;;;11.05;9.75;;;14.30;99.90;;;;;;2103530;28;20028;-70
2023/05/21 00:10:25;;;;;;;11.73;10.63;;;14.30;99.90;;;;;;2105955;28;20486;-70
2023/05/21 00:11:26;;;;;;;11.32;10.23;;;14.30;99.90;;;;;;2104373;28;20157;-70
2023/05/21 00:12:26;;;;;;;11.10;9.90;;;14.30;99.90;;;;;;2104814;28;20028;-70
2023/05/21 00:13:27;;;;;;;11.75;10.27;;;14.30;99.90;;;;;;2100981;28;20035;-70
2023/05/21 00:14:27;;;;;;;13.82;11.38;;;14.30;99.90;;;;;;2104934;28;20020;-70
2023/05/21 00:15:28;;;;;;;11.77;10.60;;;14.30;99.90;;;;;;2103327;28;20019;-70
2023/05/21 00:16:29;;;;;;;12.98;10.20;;;14.20;99.90;;;;;;2102727;28;20559;-70
2023/05/21 00:17:29;;;;;;;10.35;9.38;;;14.30;99.90;;;;;;2103203;28;20051;-70
2023/05/21 00:18:31;;;;;;;11.20;10.10;;;14.20;99.90;;;;;;2104272;28;20025;-70
2023/05/21 00:19:32;;;;;;;10.20;9.13;;;14.20;99.90;;;;;;2105041;28;20063;-70
2023/05/21 00:20:33;;;;;;;12.88;10.00;;;14.20;99.90;;;;;;2101334;28;20026;-70
2023/05/21 00:21:33;;;;;;;10.32;9.23;;;14.20;99.90;;;;;;2099783;28;20031;-70
2023/05/21 00:22:35;;;;;;;10.77;9.68;;;14.20;99.90;;;;;;2101699;28;21547;-70
2023/05/21 00:23:36;;;;;;;11.20;9.98;;;14.20;99.90;;;;;;2104433;28;20090;-70
2023/05/21 00:24:36;;;;;;;12.68;10.43;;;14.20;99.90;;;;;;2107059;28;20077;-70
2023/05/21 00:25:37;;;;;;;10.60;9.60;;;14.20;99.90;;;;;;2104719;28;20024;-70
2023/05/21 00:26:37;;;;;;;11.38;10.27;;;14.20;99.90;;;;;;2104172;28;20035;-70
2023/05/21 00:27:38;;;;;;;9.52;8.57;;;14.20;99.90;;;;;;2103662;28;20016;-70
2023/05/21 00:28:39;;;;;;;9.90;8.90;;;14.20;99.90;;;;;;2105281;28;20020;-70
2023/05/21 00:29:39;;;;;;;10.57;9.68;;;14.20;99.90;;;;;;2102267;28;20035;-70
2023/05/21 00:30:41;;;;;;;10.13;9.10;;;14.10;99.90;;;;;;2098970;28;20008;-70
2023/05/21 00:31:42;;;;;;;11.90;9.13;;;14.10;99.90;;;;;;2099397;28;20016;-70
2023/05/21 00:32:42;;;;;;;9.90;9.00;;;14.10;99.90;;;;;;2104779;28;20495;-70
2023/05/21 00:33:43;;;;;;;9.60;8.75;;;14.10;99.90;;;;;;2106415;28;20452;-70
2023/05/21 00:34:44;;;;;;;11.13;10.02;;;14.10;99.90;;;;;;2103956;28;20395;-70
2023/05/21 00:35:45;;;;;;;11.20;10.10;;;14.10;99.90;;;;;;2105672;28;20047;-70
2023/05/21 00:36:45;;;;;;;10.32;9.32;;;14.10;99.90;;;;;;2106484;28;20526;-70
2023/05/21 00:37:46;;;;;;;11.50;10.27;;;14.10;99.90;;;;;;2102135;28;20110;-70
2023/05/21 00:38:47;;;;;;;12.40;9.48;;;14.10;99.90;;;;;;2102170;28;20029;-70
2023/05/21 00:39:47;;;;;;;11.32;10.23;;;14.10;99.90;;;;;;2104431;28;20039;-70
2023/05/21 00:40:49;;;;;;;10.60;9.00;;;14.10;99.90;;;;;;2102833;28;20023;-70
2023/05/21 00:41:49;;;;;;;10.38;9.38;;;14.10;99.90;;;;;;2105697;28;20526;-70
2023/05/21 00:42:50;;;;;;;10.63;9.52;;;14.00;99.90;;;;;;2101705;28;20435;-70
2023/05/21 00:43:51;;;;;;;10.60;9.48;;;14.10;99.90;;;;;;2105501;28;20024;-70
2023/05/21 00:44:53;;;;;;;11.07;10.00;;;14.10;99.90;;;;;;2104190;28;20039;-70
2023/05/21 00:45:55;;;;;;;10.77;9.45;;;14.10;99.90;;;;;;2102789;28;20819;-70
2023/05/21 00:46:55;;;;;;;9.75;8.85;;;14.00;99.90;;;;;;2102382;28;20376;-70
2023/05/21 00:47:56;;;;;;;11.57;9.02;;;14.00;99.90;;;;;;2105643;28;20433;-70
2023/05/21 00:48:57;;;;;;;11.27;9.75;;;14.00;99.90;;;;;;2104471;28;20036;-70
2023/05/21 00:49:58;;;;;;;10.95;9.63;;;14.00;99.90;;;;;;2102758;28;20048;-70
2023/05/21 00:50:59;;;;;;;10.82;9.73;;;14.00;99.90;;;;;;2104759;28;20080;-70
2023/05/21 00:52:00;;;;;;;10.38;8.88;;;14.00;99.90;;;;;;2104737;28;20032;-70
2023/05/21 00:53:01;;;;;;;9.85;8.85;;;14.00;99.90;;;;;;2101991;28;20042;-70
2023/05/21 00:54:02;;;;;;;9.85;8.88;;;14.00;99.90;;;;;;2102796;28;20107;-70
2023/05/21 00:55:03;;;;;;;10.02;9.02;;;14.00;99.90;;;;;;2104910;28;20036;-70
2023/05/21 00:56:04;;;;;;;9.02;8.10;;;14.00;99.90;;;;;;2108155;28;20035;-70
2023/05/21 00:57:05;;;;;;;11.90;9.52;;;14.00;99.90;;;;;;2105192;28;20024;-70
2023/05/21 00:58:07;;;;;;;9.02;8.13;;;14.00;99.90;;;;;;2103150;28;20082;-70
2023/05/21 00:59:07;;;;;;;10.25;9.25;;;14.00;99.90;;;;;;2103020;28;20032;-70
2023/05/21 01:00:09;;;;;;;10.27;8.68;;;14.00;99.90;;;;;;2099142;28;20400;-70
2023/05/21 01:01:12;;;;;;;10.30;8.65;;;13.90;99.90;;;;;;2095715;28;20031;-70
2023/05/21 01:02:16;;;;;;;8.98;8.07;;;14.00;99.90;;;;;;2103111;28;20150;-70
2023/05/21 01:03:17;;;;;;;9.27;8.25;;;13.90;99.90;;;;;;2103762;28;20027;-70
2023/05/21 01:04:19;;;;;;;8.93;8.10;;;13.90;99.90;;;;;;2104967;28;20024;-70
2023/05/21 01:05:21;;;;;;;10.88;9.40;;;13.90;99.90;;;;;;2102793;28;20019;-70
2023/05/21 01:06:21;;;;;;;8.73;7.93;;;13.90;99.90;;;;;;2100937;28;20720;-70
2023/05/21 01:07:22;;;;;;;9.50;8.60;;;13.90;99.90;;;;;;2101973;28;20427;-70
2023/05/21 01:08:22;;;;;;;8.60;7.70;;;13.90;99.90;;;;;;2095702;28;20822;-70
2023/05/21 01:09:27;;;;;;;11.05;9.80;;;13.90;99.90;;;;;;2104826;28;20024;-70
2023/05/21 01:10:28;;;;;;;8.60;7.70;;;13.90;99.90;;;;;;2100318;28;20038;-70
2023/05/21 01:11:40;;;;;;;9.55;8.57;;;13.90;99.90;;;;;;2105840;28;20020;-70
2023/05/21 01:12:43;;;;;;;10.57;8.45;;;13.90;99.90;;;;;;2104796;28;20017;-70
2023/05/21 01:13:46;;;;;;;9.52;8.52;;;13.90;99.90;;;;;;2102164;28;20036;-71
2023/05/21 01:14:48;;;;;;;10.25;9.25;;;13.90;99.90;;;;;;2103026;28;20076;-70
2023/05/21 01:15:49;;;;;;;9.75;8.30;;;13.90;99.90;;;;;;2101398;28;20565;-70
2023/05/21 01:16:51;;;;;;;8.73;7.85;;;13.90;99.90;;;;;;2101753;28;20040;-70
2023/05/21 01:17:53;;;;;;;8.77;7.97;;;13.90;99.90;;;;;;2102423;28;20016;-70
2023/05/21 01:18:53;;;;;;;8.57;7.78;;;13.90;99.90;;;;;;2103867;28;20046;-70
2023/05/21 01:19:56;;;;;;;8.30;7.50;;;13.90;99.90;;;;;;2104529;28;20020;-70
2023/05/21 01:20:57;;;;;;;9.23;8.43;;;13.90;99.90;;;;;;2105218;28;20044;-70
2023/05/21 01:22:03;;;;;;;9.68;8.68;;;13.80;99.90;;;;;;2102488;28;20543;-70
2023/05/21 01:23:04;;;;;;;7.90;7.20;;;13.90;99.90;;;;;;2103375;28;20019;-70
2023/05/21 01:24:06;;;;;;;9.05;7.88;;;13.80;99.90;;;;;;2103168;28;20032;-70
2023/05/21 01:25:07;;;;;;;8.00;7.20;;;13.80;99.90;;;;;;2104595;28;20071;-70
2023/05/21 01:26:11;;;;;;;9.27;8.38;;;13.80;99.90;;;;;;2103518;28;20031;-70
2023/05/21 01:27:12;;;;;;;9.68;8.77;;;13.80;99.90;;;;;;2104451;28;20542;-70
2023/05/21 01:28:13;;;;;;;9.55;8.55;;;13.80;99.90;;;;;;2105092;28;20107;-70
2023/05/21 01:29:13;;;;;;;8.63;7.82;;;13.80;99.90;;;;;;2102008;28;20024;-70
2023/05/21 01:30:16;;;;;;;8.13;7.22;;;13.80;99.90;;;;;;2103574;28;20167;-70
2023/05/21 01:32:00;;;;;;;8.77;7.75;;;13.80;99.90;;;;;;2103802;28;20067;-70
2023/05/21 01:33:03;;;;;;;8.23;7.40;;;13.80;99.90;;;;;;2088214;28;20025;-70
2023/05/21 01:34:06;;;;;;;8.93;7.90;;;13.80;99.90;;;;;;2102381;28;20020;-70
2023/05/21 01:35:11;;;;;;;8.75;7.85;;;13.80;99.90;;;;;;2104650;28;20073;-70
2023/05/21 01:36:22;;;;;;;8.35;7.47;;;13.70;99.90;;;;;;2103638;28;20052;-70
2023/05/21 01:37:29;;;;;;;9.27;8.00;;;13.80;99.90;;;;;;2102579;28;20500;-70
2023/05/21 01:38:41;;;;;;;8.45;7.60;;;13.70;99.90;;;;;;2099750;28;20903;-70
2023/05/21 01:39:48;;;;;;;8.77;7.85;;;13.70;99.90;;;;;;2103313;28;20675;-70
2023/05/21 01:40:57;;;;;;;9.05;8.15;;;13.70;99.90;;;;;;2104444;28;20648;-70
2023/05/21 01:42:00;;;;;;;8.82;7.72;;;13.80;99.90;;;;;;2104651;28;20028;-70
2023/05/21 01:43:04;;;;;;;9.60;8.30;;;13.70;99.90;;;;;;2103383;28;20028;-70
2023/05/21 01:44:07;;;;;;;8.90;8.02;;;13.70;99.90;;;;;;2102994;28;20456;-70
2023/05/21 01:45:09;;;;;;;9.40;8.20;;;13.70;99.90;;;;;;2103966;28;20085;-70
2023/05/21 01:46:13;;;;;;;9.60;8.50;;;13.70;99.90;;;;;;2101972;28;20077;-70
2023/05/21 01:47:16;;;;;;;9.23;8.20;;;13.80;99.90;;;;;;2104509;28;20028;-70
2023/05/21 01:48:18;;;;;;;11.48;8.02;;;13.80;99.90;;;;;;2104417;28;20028;-70
2023/05/21 01:49:19;;;;;;;8.63;7.80;;;13.80;99.90;;;;;;2104785;28;20034;-70
2023/05/21 01:50:22;;;;;;;8.50;7.70;;;13.80;99.90;;;;;;2102908;28;20027;-70
2023/05/21 01:51:23;;;;;;;9.93;7.88;;;13.80;99.90;;;;;;2105068;28;20032;-70
2023/05/21 01:52:24;;;;;;;8.95;7.78;;;13.80;99.90;;;;;;2102871;28;20373;-70
2023/05/21 01:53:24;;;;;;;8.93;8.05;;;13.80;99.90;;;;;;2099085;28;20526;-70
2023/05/21 01:54:25;;;;;;;8.65;7.88;;;13.80;99.90;;;;;;2104433;28;20035;-70
2023/05/21 01:55:27;;;;;;;8.40;7.60;;;13.80;99.90;;;;;;2105686;28;20032;-70
2023/05/21 01:56:27;;;;;;;8.70;7.88;;;13.80;99.90;;;;;;2105413;28;20035;-70
2023/05/21 01:57:28;;;;;;;8.98;7.63;;;13.80;99.90;;;;;;2104399;28;20028;-70
2023/05/21 01:58:28;;;;;;;8.27;7.50;;;13.80;99.90;;;;;;2102362;28;20027;-70
2023/05/21 01:59:29;;;;;;;8.82;7.93;;;13.80;99.90;;;;;;2106199;28;20419;-70
2023/05/21 02:00:31;;;;;;;10.02;7.93;;;13.80;99.90;;;;;;2105140;28;20020;-70
2023/05/21 02:01:31;;;;;;;8.15;7.35;;;13.90;99.90;;;;;;2106741;28;20387;-70
2023/05/21 02:02:32;;;;;;;9.15;8.05;;;13.90;99.90;;;;;;2104092;28;20042;-70
2023/05/21 02:03:33;;;;;;;10.43;7.93;;;13.90;99.90;;;;;;2107433;28;20145;-70
2023/05/21 02:04:34;;;;;;;10.30;7.53;;;13.90;99.90;;;;;;2106362;28;20094;-70
2023/05/21 02:05:35;;;;;;;9.25;6.85;;;13.90;99.90;;;;;;2104590;28;20023;-70
2023/05/21 02:06:38;;;;;;;8.05;7.30;;;13.90;99.90;;;;;;2105747;28;20024;-70
2023/05/21 02:07:39;;;;;;;7.60;6.90;;;13.90;99.90;;;;;;2098381;28;20027;-70
2023/05/21 02:08:39;;;;;;;8.00;7.00;;;13.90;99.90;;;;;;2095691;28;20031;-70
2023/05/21 02:09:40;;;;;;;12.48;7.80;;;13.90;99.90;;;;;;2099090;28;20039;-70
2023/05/21 02:10:41;;;;;;;8.52;7.55;;;13.90;99.90;;;;;;2106310;28;20169;-70
2023/05/21 02:11:41;;;;;;;8.00;7.28;;;13.90;99.90;;;;;;2105902;28;20074;-70
2023/05/21 02:12:42;;;;;;;10.65;7.60;;;14.00;99.90;;;;;;2106306;28;20020;-70
2023/05/21 02:13:44;;;;;;;7.50;6.75;;;14.00;99.90;;;;;;2106126;28;20069;-70
2023/05/21 02:14:49;;;;;;;8.43;7.60;;;14.00;99.90;;;;;;2105439;28;20024;-70
2023/05/21 02:15:53;;;;;;;7.65;6.80;;;14.00;99.90;;;;;;2105879;28;20464;-70
2023/05/21 02:16:53;;;;;;;8.93;7.55;;;14.00;99.90;;;;;;2103012;28;20051;-70
2023/05/21 02:17:54;;;;;;;8.05;6.63;;;14.00;99.90;;;;;;2103600;28;20020;-70
2023/05/21 02:18:56;;;;;;;7.78;6.72;;;14.00;99.90;;;;;;2105782;28;20031;-70
2023/05/21 02:19:57;;;;;;;8.52;7.00;;;14.00;99.90;;;;;;2105164;28;20032;-70
2023/05/21 02:20:58;;;;;;;8.18;6.90;;;14.00;99.90;;;;;;2106571;28;20094;-70
2023/05/21 02:21:58;;;;;;;8.43;7.63;;;14.00;99.90;;;;;;2102804;28;20430;-70
2023/05/21 02:22:59;;;;;;;8.80;6.75;;;14.00;99.90;;;;;;2104515;28;20092;-70
2023/05/21 02:23:59;;;;;;;8.10;7.30;;;14.00;99.90;;;;;;2105907;28;20035;-70
2023/05/21 02:25:00;;;;;;;8.68;7.00;;;14.10;99.90;;;;;;2106118;28;20032;-70
2023/05/21 02:26:00;;;;;;;7.65;6.95;;;14.10;99.90;;;;;;2107233;28;20357;-70
2023/05/21 02:27:01;;;;;;;8.25;6.80;;;14.00;99.90;;;;;;2103965;28;20028;-70
2023/05/21 02:28:02;;;;;;;7.78;6.97;;;14.10;99.90;;;;;;2104722;28;20521;-70
2023/05/21 02:29:03;;;;;;;7.93;7.18;;;14.10;99.90;;;;;;2105423;28;20494;-70
2023/05/21 02:30:08;;;;;;;7.60;6.93;;;14.10;99.90;;;;;;2104366;28;20028;-70
2023/05/21 02:31:08;;;;;;;8.02;6.80;;;14.10;99.90;;;;;;2105469;28;20099;-70
2023/05/21 02:32:10;;;;;;;7.85;6.50;;;14.10;99.90;;;;;;2106584;28;20032;-70
2023/05/21 02:33:13;;;;;;;7.00;6.30;;;14.10;99.90;;;;;;2103663;28;20035;-70
2023/05/21 02:34:13;;;;;;;7.15;6.53;;;14.10;99.90;;;;;;2097843;28;20093;-70
2023/05/21 02:35:14;;;;;;;7.80;6.95;;;14.10;99.90;;;;;;2105156;28;20020;-70
2023/05/21 02:36:17;;;;;;;8.10;6.43;;;14.10;99.90;;;;;;2103525;28;20028;-70
2023/05/21 02:37:19;;;;;;;7.97;7.20;;;14.10;99.90;;;;;;2104582;28;20341;-70
2023/05/21 02:38:21;;;;;;;8.00;7.20;;;14.10;99.90;;;;;;2101391;28;20107;-70
2023/05/21 02:39:22;;;;;;;7.70;7.00;;;14.10;99.90;;;;;;2103740;28;20395;-70
2023/05/21 02:40:23;;;;;;;7.68;6.95;;;14.10;99.90;;;;;;2104038;28;20027;-70
2023/05/21 02:41:25;;;;;;;8.10;7.10;;;14.10;99.90;;;;;;2103387;28;20031;-70
2023/05/21 02:42:26;;;;;;;7.93;6.63;;;14.10;99.90;;;;;;2100198;28;20028;-70
2023/05/21 02:43:26;;;;;;;10.45;7.00;;;14.10;99.90;;;;;;2102457;28;21385;-70
2023/05/21 02:44:27;;;;;;;7.18;6.57;;;14.10;99.90;;;;;;2106338;28;20111;-70
2023/05/21 02:45:29;;;;;;;7.85;7.05;;;14.10;99.90;;;;;;2103945;28;20024;-70
2023/05/21 02:46:29;;;;;;;7.68;6.70;;;14.10;99.90;;;;;;2102964;28;20024;-70
2023/05/21 02:47:30;;;;;;;7.13;6.43;;;14.10;99.90;;;;;;2106644;28;20030;-70
2023/05/21 02:48:30;;;;;;;8.18;7.38;;;14.20;99.90;;;;;;2106070;28;20024;-70
2023/05/21 02:49:31;;;;;;;7.25;6.50;;;14.10;99.90;;;;;;2102466;28;20531;-70
2023/05/21 02:50:32;;;;;;;8.88;7.25;;;14.10;99.90;;;;;;2105458;28;20015;-70
2023/05/21 02:51:32;;;;;;;7.88;6.95;;;14.20;99.90;;;;;;2105945;28;20023;-70
2023/05/21 02:52:33;;;;;;;6.90;6.20;;;14.10;99.90;;;;;;2104215;28;20107;-70
2023/05/21 02:53:33;;;;;;;7.65;6.95;;;14.10;99.90;;;;;;2106122;28;20027;-70
2023/05/21 02:54:34;;;;;;;6.82;6.22;;;14.20;99.90;;;;;;2104996;28;20111;-70
2023/05/21 02:55:34;;;;;;;7.85;7.15;;;14.20;99.90;;;;;;2102889;28;20024;-70
2023/05/21 02:56:35;;;;;;;9.85;6.88;;;14.20;99.90;;;;;;2106221;28;20028;-70
2023/05/21 02:57:35;;;;;;;7.18;6.47;;;14.20;99.90;;;;;;2104757;28;20375;-70
2023/05/21 02:58:36;;;;;;;8.20;7.00;;;14.10;99.90;;;;;;2103392;28;20069;-70
2023/05/21 02:59:36;;;;;;;7.55;6.53;;;14.20;99.90;;;;;;2106301;28;20065;-70
2023/05/21 03:00:37;;;;;;;8.30;7.47;;;14.10;99.90;;;;;;2103961;28;20024;-70
2023/05/21 03:01:40;;;;;;;8.13;7.20;;;14.20;99.90;;;;;;2105025;28;20024;-70
2023/05/21 03:02:41;;;;;;;9.02;7.07;;;14.10;99.90;;;;;;2104459;28;20037;-70
2023/05/21 03:03:41;;;;;;;7.68;6.68;;;14.10;99.90;;;;;;2103034;28;20020;-70
2023/05/21 03:04:45;;;;;;;6.75;6.18;;;14.10;99.90;;;;;;2105036;28;20031;-70
2023/05/21 03:05:47;;;;;;;8.02;6.78;;;14.10;99.90;;;;;;2105181;27;20086;-70
2023/05/21 03:06:50;;;;;;;9.75;6.72;;;14.10;99.90;;;;;;2103719;28;20078;-70
2023/05/21 03:07:52;;;;;;;11.57;7.13;;;14.10;99.90;;;;;;2105933;28;20038;-70
2023/05/21 03:08:52;;;;;;;8.48;6.32;;;14.10;99.90;;;;;;2104983;28;20383;-70
2023/05/21 03:09:53;;;;;;;7.80;7.00;;;14.10;99.90;;;;;;2103298;28;20024;-70
2023/05/21 03:10:54;;;;;;;7.55;6.85;;;14.10;99.90;;;;;;2105698;28;20028;-70
2023/05/21 03:11:54;;;;;;;7.47;6.78;;;14.10;99.90;;;;;;2104540;28;20103;-70
2023/05/21 03:12:55;;;;;;;9.55;6.57;;;14.10;99.90;;;;;;2101793;28;20063;-70
2023/05/21 03:13:55;;;;;;;6.60;6.00;;;14.10;99.90;;;;;;2104114;28;20862;-70
2023/05/21 03:14:56;;;;;;;7.88;6.60;;;14.10;99.90;;;;;;2104294;28;20028;-70
2023/05/21 03:15:56;;;;;;;6.80;6.10;;;14.10;99.90;;;;;;2106798;28;20118;-70
2023/05/21 03:16:57;;;;;;;7.20;6.50;;;14.10;99.90;;;;;;2104779;28;20024;-70
2023/05/21 03:17:58;;;;;;;7.25;6.55;;;14.10;99.90;;;;;;2103492;28;20114;-70
2023/05/21 03:18:59;;;;;;;11.27;7.47;;;14.10;99.90;;;;;;2105967;28;20031;-70
2023/05/21 03:20:00;;;;;;;8.15;5.60;;;14.10;99.90;;;;;;2104795;28;22129;-70
2023/05/21 03:21:00;;;;;;;7.22;6.53;;;14.10;99.90;;;;;;2105028;28;20185;-70
2023/05/21 03:22:02;;;;;;;7.38;6.72;;;14.10;99.90;;;;;;2103232;28;20072;-70
2023/05/21 03:23:04;;;;;;;7.95;6.35;;;14.10;99.90;;;;;;2103778;28;20028;-70
2023/05/21 03:24:05;;;;;;;8.60;6.63;;;14.10;99.90;;;;;;2104694;28;20023;-70
2023/05/21 03:25:06;;;;;;;7.30;6.60;;;14.10;99.90;;;;;;2103552;28;20520;-70
2023/05/21 03:26:07;;;;;;;7.60;6.90;;;14.10;99.90;;;;;;2104330;28;20381;-70
2023/05/21 03:27:08;;;;;;;7.53;6.82;;;14.10;99.90;;;;;;2106846;28;20093;-70
2023/05/21 03:28:11;;;;;;;10.40;7.20;;;14.10;99.90;;;;;;2105280;28;20032;-70
2023/05/21 03:29:12;;;;;;;7.43;6.72;;;14.10;99.90;;;;;;2104859;28;20030;-70
2023/05/21 03:30:12;;;;;;;7.13;6.53;;;14.10;99.90;;;;;;2106660;28;20692;-70
2023/05/21 03:31:13;;;;;;;8.32;7.25;;;14.10;99.90;;;;;;2107743;28;20502;-70
2023/05/21 03:32:13;;;;;;;7.22;6.47;;;14.10;99.90;;;;;;2107348;28;20475;-70
2023/05/21 03:33:15;;;;;;;8.20;7.40;;;14.00;99.90;;;;;;2105299;28;20624;-70
2023/05/21 03:34:16;;;;;;;7.38;6.55;;;14.00;99.90;;;;;;2103353;28;20058;-70
2023/05/21 03:35:16;;;;;;;8.23;6.90;;;14.00;99.90;;;;;;2104946;28;20024;-70
2023/05/21 03:36:17;;;;;;;7.95;6.97;;;14.00;99.90;;;;;;2101952;28;20036;-70
2023/05/21 03:37:17;;;;;;;8.95;7.32;;;14.00;99.90;;;;;;2104791;28;20379;-70
2023/05/21 03:38:18;;;;;;;8.07;7.05;;;14.00;99.90;;;;;;2103995;28;20030;-70
2023/05/21 03:39:19;;;;;;;7.80;7.00;;;14.00;99.90;;;;;;2104828;28;20028;-70
2023/05/21 03:40:20;;;;;;;8.07;6.60;;;14.10;99.90;;;;;;2105066;28;20020;-70
2023/05/21 03:41:21;;;;;;;7.45;6.65;;;14.10;99.90;;;;;;2106502;28;20011;-70
2023/05/21 03:42:21;;;;;;;8.02;7.22;;;14.10;99.90;;;;;;2104557;28;20024;-70
2023/05/21 03:43:22;;;;;;;7.05;6.45;;;14.00;99.90;;;;;;2107104;28;20023;-70
2023/05/21 03:44:22;;;;;;;7.10;6.50;;;14.10;99.90;;;;;;2103097;28;20114;-70
2023/05/21 03:45:23;;;;;;;7.95;7.07;;;14.10;99.90;;;;;;2103731;28;20043;-70
2023/05/21 03:46:25;;;;;;;8.95;6.70;;;14.10;99.90;;;;;;2105939;28;20375;-70
2023/05/21 03:47:25;;;;;;;8.70;7.03;;;14.00;99.90;;;;;;2105738;28;20024;-70
2023/05/21 03:48:26;;;;;;;7.53;6.82;;;14.00;99.90;;;;;;2103797;28;20081;-70
2023/05/21 03:49:26;;;;;;;8.18;7.47;;;14.00;99.90;;;;;;2101043;28;20204;-70
2023/05/21 03:50:27;;;;;;;8.07;7.28;;;14.00;99.90;;;;;;2102583;28;20079;-70
2023/05/21 03:51:28;;;;;;;7.80;7.07;;;14.10;99.90;;;;;;2104737;28;20051;-70
2023/05/21 03:52:29;;;;;;;8.45;6.53;;;14.00;99.90;;;;;;2102982;28;20404;-70
2023/05/21 03:53:32;;;;;;;7.97;7.15;;;14.10;99.90;;;;;;2103907;28;20035;-70
2023/05/21 03:54:32;;;;;;;7.60;6.90;;;14.10;99.90;;;;;;2100688;28;20060;-70
2023/05/21 03:55:33;;;;;;;8.77;6.45;;;14.00;99.90;;;;;;2104293;28;20766;-70
2023/05/21 03:56:33;;;;;;;10.02;7.47;;;14.00;99.90;;;;;;2105413;28;20658;-70
2023/05/21 03:57:34;;;;;;;7.50;6.80;;;14.00;99.90;;;;;;2104079;28;20031;-70
2023/05/21 03:58:35;;;;;;;7.43;6.50;;;14.00;99.90;;;;;;2104615;28;20053;-70
2023/05/21 03:59:36;;;;;;;7.68;6.97;;;14.00;99.90;;;;;;2102835;28;20012;-70
2023/05/21 04:00:37;;;;;;;8.10;7.30;;;14.00;99.90;;;;;;2106135;28;20023;-70
2023/05/21 04:01:38;;;;;;;8.35;7.55;;;14.10;99.90;;;;;;2104834;28;20027;-70
2023/05/21 04:02:38;;;;;;;9.02;7.68;;;14.00;99.90;;;;;;2104503;28;20032;-70
2023/05/21 04:03:39;;;;;;;6.90;6.30;;;14.00;99.90;;;;;;2104775;28;20025;-70
2023/05/21 04:04:39;;;;;;;8.23;6.93;;;14.00;99.90;;;;;;2103463;28;20127;-70
2023/05/21 04:05:41;;;;;;;11.95;7.72;;;14.10;99.90;;;;;;2102141;28;20039;-70
2023/05/21 04:06:43;;;;;;;8.77;7.63;;;14.10;99.90;;;;;;2104892;28;20529;-70
2023/05/21 04:07:45;;;;;;;9.23;7.13;;;14.10;99.90;;;;;;2103919;28;20031;-70
2023/05/21 04:08:45;;;;;;;8.88;7.70;;;14.10;99.90;;;;;;2103581;28;20020;-70
2023/05/21 04:09:46;;;;;;;7.63;6.93;;;14.10;99.90;;;;;;2103570;28;20032;-70
2023/05/21 04:10:46;;;;;;;8.98;7.57;;;14.10;99.90;;;;;;2105497;28;20024;-70
2023/05/21 04:11:47;;;;;;;8.27;7.45;;;14.10;99.90;;;;;;2104039;28;20200;-70
2023/05/21 04:12:51;;;;;;;7.80;6.97;;;14.10;99.90;;;;;;2105891;28;20024;-70
2023/05/21 04:13:51;;;;;;;8.35;7.50;;;14.10;99.90;;;;;;2104941;28;20016;-70
2023/05/21 04:14:52;;;;;;;7.78;6.97;;;14.10;99.90;;;;;;2102884;28;20016;-70
2023/05/21 04:15:53;;;;;;;8.35;7.55;;;14.10;99.90;;;;;;2102806;28;20543;-70
2023/05/21 04:16:53;;;;;;;8.02;7.22;;;14.10;99.90;;;;;;2102364;28;20016;-70
2023/05/21 04:17:54;;;;;;;8.43;7.53;;;14.10;99.90;;;;;;2102631;28;20042;-70
2023/05/21 04:18:54;;;;;;;7.20;6.50;;;14.20;99.90;;;;;;2102459;28;20032;-70
2023/05/21 04:19:55;;;;;;;8.05;7.18;;;14.10;99.90;;;;;;2104552;28;20036;-70
2023/05/21 04:20:55;;;;;;;9.63;7.70;;;14.10;99.90;;;;;;2103491;28;20487;-70
2023/05/21 04:21:57;;;;;;;8.18;7.38;;;14.10;99.90;;;;;;2104277;28;20472;-70
2023/05/21 04:22:57;;;;;;;10.55;8.80;;;14.20;99.90;;;;;;2103896;28;20024;-70
2023/05/21 04:23:59;;;;;;;8.75;7.63;;;14.10;99.90;;;;;;2103668;28;20107;-70
2023/05/21 04:25:01;;;;;;;8.32;7.05;;;14.20;99.90;;;;;;2104294;28;20054;-70
2023/05/21 04:26:01;;;;;;;8.15;7.35;;;14.20;99.90;;;;;;2104320;28;20028;-70
2023/05/21 04:27:02;;;;;;;7.82;7.13;;;14.20;99.90;;;;;;2105581;28;20121;-70
2023/05/21 04:28:03;;;;;;;7.35;6.65;;;14.20;99.90;;;;;;2100836;28;20043;-70
2023/05/21 04:29:03;;;;;;;8.73;7.55;;;14.20;99.90;;;;;;2106593;28;20479;-70
2023/05/21 04:30:05;;;;;;;9.18;7.40;;;14.20;99.90;;;;;;2104492;28;20083;-70
2023/05/21 04:31:07;;;;;;;8.50;7.60;;;14.20;99.90;;;;;;2107046;28;20020;-70
2023/05/21 04:32:08;;;;;;;7.65;6.95;;;14.20;99.90;;;;;;2104359;28;20073;-70
2023/05/21 04:33:08;;;;;;;8.88;7.43;;;14.20;99.90;;;;;;2102476;28;20092;-70
2023/05/21 04:34:09;;;;;;;8.48;7.68;;;14.20;99.90;;;;;;2103091;28;20024;-70
2023/05/21 04:35:10;;;;;;;8.65;7.57;;;14.20;99.90;;;;;;2104013;28;20030;-70
2023/05/21 04:36:11;;;;;;;8.68;7.80;;;14.20;99.90;;;;;;2103963;28;20031;-70
2023/05/21 04:37:11;;;;;;;8.35;7.55;;;14.30;99.90;;;;;;2103126;28;20028;-70
2023/05/21 04:38:12;;;;;;;8.15;7.43;;;14.20;99.90;;;;;;2102167;28;20035;-70
2023/05/21 04:39:14;;;;;;;8.75;7.85;;;14.30;99.90;;;;;;2103467;28;20024;-70
2023/05/21 04:40:17;;;;;;;8.63;7.75;;;14.30;99.90;;;;;;2103777;28;20395;-71
2023/05/21 04:41:17;;;;;;;9.43;6.82;;;14.30;99.90;;;;;;2103719;28;20476;-70
2023/05/21 04:42:18;;;;;;;7.97;7.18;;;14.30;99.90;;;;;;2103790;28;21724;-70
2023/05/21 04:43:24;;;;;;;8.73;7.50;;;14.30;99.90;;;;;;2103981;28;20086;-70
2023/05/21 04:44:24;;;;;;;8.05;7.28;;;14.30;99.90;;;;;;2103590;28;20067;-70
2023/05/21 04:45:25;;;;;;;8.15;7.35;;;14.30;99.90;;;;;;2105029;28;20040;-70
2023/05/21 04:46:25;;;;;;;7.93;7.22;;;14.30;99.90;;;;;;2105527;28;20061;-70
2023/05/21 04:47:29;;;;;;;8.35;7.50;;;14.30;99.90;;;;;;2104302;28;20023;-70
2023/05/21 04:48:29;;;;;;;8.30;7.47;;;14.30;99.90;;;;;;2105808;28;20020;-70
2023/05/21 04:49:30;;;;;;;8.45;7.63;;;14.40;99.90;;;;;;2104388;28;20103;-70
2023/05/21 04:50:30;;;;;;;9.25;8.02;;;14.40;99.90;;;;;;2101091;28;20117;-70
2023/05/21 04:51:31;;;;;;;8.63;7.82;;;14.40;99.90;;;;;;2101143;28;20147;-70
2023/05/21 04:52:35;;;;;;;8.90;7.50;;;14.40;99.90;;;;;;2103639;28;20047;-70
2023/05/21 04:53:37;;;;;;;8.25;7.47;;;14.40;99.90;;;;;;2103719;28;20012;-70
2023/05/21 04:54:40;;;;;;;8.57;7.70;;;14.40;99.90;;;;;;2103085;28;20118;-70
2023/05/21 04:55:41;;;;;;;8.23;7.20;;;14.40;99.90;;;;;;2103000;28;20021;-70
2023/05/21 04:56:42;;;;;;;9.35;8.38;;;14.40;99.90;;;;;;2105994;28;20047;-70
2023/05/21 04:57:42;;;;;;;7.72;6.75;;;14.40;99.90;;;;;;2103555;28;20028;-71
2023/05/21 04:58:43;;;;;;;8.07;7.38;;;14.40;99.90;;;;;;2102993;28;20674;-71
2023/05/21 04:59:45;;;;;;;8.55;7.57;;;14.40;99.90;;;;;;2104722;28;20032;-70
2023/05/21 05:00:46;;;;;;;8.43;7.40;;;14.40;99.90;;;;;;2103270;28;20057;-70
2023/05/21 05:01:46;;;;;;;8.23;7.53;;;14.50;99.90;;;;;;2103299;28;20036;-70
2023/05/21 05:02:47;;;;;;;9.27;7.93;;;14.50;99.90;;;;;;2103604;28;21482;-70
2023/05/21 05:03:48;;;;;;;9.07;7.70;;;14.50;99.90;;;;;;2102640;28;20020;-70
2023/05/21 05:04:49;;;;;;;8.35;7.57;;;14.40;99.90;;;;;;2104521;28;20406;-70
2023/05/21 05:05:50;;;;;;;8.30;7.53;;;14.50;99.90;;;;;;2103283;28;20020;-70
2023/05/21 05:06:51;;;;;;;8.75;7.28;;;14.50;99.90;;;;;;2102066;28;20016;-70
2023/05/21 05:07:51;;;;;;;9.80;8.80;;;14.50;99.90;;;;;;2101066;28;20115;-70
2023/05/21 05:08:52;;;;;;;9.90;8.95;;;14.50;99.90;;;;;;2101760;28;20028;-70
2023/05/21 05:09:52;;;;;;;9.85;8.85;;;14.50;99.90;;;;;;2103467;28;20016;-70
2023/05/21 05:10:53;;;;;;;10.40;8.48;;;14.50;99.90;;;;;;2103219;28;20062;-70
2023/05/21 05:11:53;;;;;;;10.25;8.07;;;14.60;99.90;;;;;;2103904;28;20020;-70
2023/05/21 05:12:54;;;;;;;8.88;8.07;;;14.60;99.90;;;;;;2102677;28;20070;-70
2023/05/21 05:13:54;;;;;;;9.00;8.15;;;14.60;99.90;;;;;;2103611;28;20095;-70
2023/05/21 05:14:55;;;;;;;9.20;8.20;;;14.60;99.90;;;;;;2101619;28;20027;-70
2023/05/21 05:15:56;;;;;;;8.90;8.02;;;14.60;99.90;;;;;;2103050;28;20035;-70
2023/05/21 05:16:59;;;;;;;8.32;7.53;;;14.60;99.90;;;;;;2102525;28;20063;-70
2023/05/21 05:18:00;;;;;;;9.25;8.35;;;14.70;99.90;;;;;;2104385;28;20081;-70